Time;durP1;ratioP1;P1;durP2;ratioP2;P2;SDS_P1;SDS_P2;PMS_P1;PMS_P2;Temp;Humidity;BMP_temperature;BMP_pressure;BME280_temperature;BME280_humidity;BME280_pressure;Samples;Min_cycle;Max_cycle;Signal;HPM_P1;HPM_P2
2023/12/16 00:01:33;;;;;;;;;;;;;;;4.83;100.00;100555.79;68015;1275;1016415;-75
2023/12/16 00:04:36;;;;;;;;;;;;;;;4.73;100.00;100566.11;67993;1275;1016489;-75
2023/12/16 00:07:39;;;;;;;;;;;;;;;4.78;100.00;100572.83;68033;1275;1016729;-75
2023/12/16 00:10:42;;;;;;;;;;;;;;;4.76;100.00;100575.26;68017;1275;1016349;-75
2023/12/16 00:13:44;;;;;;;;;;;;;;;4.84;100.00;100579.18;68019;1275;1016278;-74
2023/12/16 00:16:47;;;;;;;;;;;;;;;4.86;100.00;100569.45;68028;1275;1016341;-75
2023/12/16 00:19:50;;;;;;;;;;;;;;;5.00;100.00;100557.17;67982;1275;1015979;-75
2023/12/16 00:22:52;;;;;;;;;;;;;;;4.99;100.00;100550.08;68035;1275;1016270;-74
2023/12/16 00:25:55;;;;;;;;;;;;;;;4.96;100.00;100551.67;68019;1275;1016432;-74
2023/12/16 00:28:57;;;;;;;;;;;;;;;5.04;100.00;100560.95;67983;1275;1018070;-74
2023/12/16 00:32:01;;;;;;;;;;;;;;;5.14;100.00;100578.02;68018;1275;1016341;-74
2023/12/16 00:35:04;;;;;;;;;;;;;;;5.10;100.00;100571.81;67999;1275;1016104;-75
2023/12/16 00:38:07;;;;;;;;;;;;;;;5.16;100.00;100568.96;67996;1275;1016667;-74
2023/12/16 00:41:09;;;;;;;;;;;;;;;5.23;100.00;100573.06;67975;1275;1016347;-74
2023/12/16 00:44:12;;;;;;;;;;;;;;;5.24;100.00;100573.40;68002;1275;1016148;-75
2023/12/16 00:47:15;;;;;;;;;;;;;;;5.17;100.00;100571.20;67996;1275;1016258;-75
2023/12/16 00:50:17;;;;;;;;;;;;;;;5.28;100.00;100572.48;67988;1275;1016003;-75
2023/12/16 00:53:20;;;;;;;;;;;;;;;5.34;100.00;100564.95;68017;1275;1016461;-74
2023/12/16 00:56:22;;;;;;;;;;;;;;;5.44;100.00;100567.61;68069;1275;1016402;-74
2023/12/16 00:59:26;;;;;;;;;;;;;;;5.38;100.00;100556.75;68071;1275;1016247;-75
2023/12/16 01:02:28;;;;;;;;;;;;;;;5.33;100.00;100553.51;68047;1275;1016445;-74
2023/12/16 01:05:31;;;;;;;;;;;;;;;5.31;100.00;100563.27;68036;1275;1016016;-74
2023/12/16 01:08:34;;;;;;;;;;;;;;;5.43;100.00;100552.70;67927;1275;1016300;-74
2023/12/16 01:11:38;;;;;;;;;;;;;;;5.42;100.00;100565.38;68011;1275;1016448;-74
2023/12/16 01:14:41;;;;;;;;;;;;;;;5.41;100.00;100566.59;68038;1275;1016410;-74
2023/12/16 01:17:43;;;;;;;;;;;;;;;5.47;100.00;100568.61;68030;1275;1016419;-74
2023/12/16 01:20:46;;;;;;;;;;;;;;;5.50;100.00;100564.59;67943;1275;1016440;-74
2023/12/16 01:23:48;;;;;;;;;;;;;;;5.52;100.00;100564.55;68031;1275;1016323;-74
2023/12/16 01:26:51;;;;;;;;;;;;;;;5.47;100.00;100567.05;68037;1275;1016393;-74
2023/12/16 01:29:54;;;;;;;;;;;;;;;5.48;100.00;100563.05;68021;1275;1017206;-72
2023/12/16 01:32:57;;;;;;;;;;;;;;;5.48;100.00;100571.89;68026;1275;1015773;-74
2023/12/16 01:36:00;;;;;;;;;;;;;;;5.51;100.00;100567.36;67986;1275;1016458;-75
2023/12/16 01:39:03;;;;;;;;;;;;;;;5.56;100.00;100554.98;68051;1275;1016392;-74
2023/12/16 01:42:05;;;;;;;;;;;;;;;5.48;100.00;100549.34;68063;1275;1016502;-76
2023/12/16 01:45:08;;;;;;;;;;;;;;;5.57;100.00;100553.92;68029;1275;1016601;-75
2023/12/16 01:48:10;;;;;;;;;;;;;;;5.62;100.00;100556.61;68057;1275;1016390;-75
2023/12/16 01:51:13;;;;;;;;;;;;;;;5.65;100.00;100558.33;68039;1275;1016428;-74
2023/12/16 01:54:18;;;;;;;;;;;;;;;5.65;100.00;100563.36;68048;1275;1016343;-75
2023/12/16 01:57:20;;;;;;;;;;;;;;;5.68;100.00;100570.60;68019;1275;1016032;-75
2023/12/16 02:00:23;;;;;;;;;;;;;;;5.59;100.00;100574.89;68020;1275;1016425;-74
2023/12/16 02:03:26;;;;;;;;;;;;;;;5.52;100.00;100576.72;68020;1275;1016228;-75
2023/12/16 02:06:29;;;;;;;;;;;;;;;5.59;100.00;100571.94;68031;1275;1016470;-75
2023/12/16 02:09:31;;;;;;;;;;;;;;;5.58;100.00;100567.77;68059;1275;1017991;-74
2023/12/16 02:12:34;;;;;;;;;;;;;;;5.65;100.00;100567.02;68031;1275;1016249;-74
2023/12/16 02:15:37;;;;;;;;;;;;;;;5.64;100.00;100570.65;68041;1275;1016243;-74
2023/12/16 02:18:39;;;;;;;;;;;;;;;5.63;100.00;100572.41;68039;1275;1016707;-75
2023/12/16 02:21:42;;;;;;;;;;;;;;;5.63;100.00;100581.95;68005;1275;1016079;-75
2023/12/16 02:24:45;;;;;;;;;;;;;;;5.59;100.00;100580.45;68033;1275;1016413;-75
2023/12/16 02:27:47;;;;;;;;;;;;;;;5.68;100.00;100581.73;68058;1275;1016232;-75
2023/12/16 02:30:50;;;;;;;;;;;;;;;5.72;100.00;100579.92;68064;1275;1016668;-74
2023/12/16 02:33:52;;;;;;;;;;;;;;;5.67;100.00;100570.79;68015;1275;1016065;-74
2023/12/16 02:36:55;;;;;;;;;;;;;;;5.49;100.00;100572.59;68005;1275;1016384;-74
2023/12/16 02:39:58;;;;;;;;;;;;;;;5.43;100.00;100567.96;68007;1275;1016497;-75
2023/12/16 02:43:01;;;;;;;;;;;;;;;5.47;100.00;100576.42;68032;1275;1018790;-75
2023/12/16 02:46:04;;;;;;;;;;;;;;;5.50;100.00;100579.15;68056;1275;1016277;-74
2023/12/16 02:49:07;;;;;;;;;;;;;;;5.56;100.00;100581.88;67993;1275;1016401;-74
2023/12/16 02:52:09;;;;;;;;;;;;;;;5.46;100.00;100585.47;68035;1275;1016276;-74
2023/12/16 02:55:12;;;;;;;;;;;;;;;5.34;100.00;100592.20;68041;1275;1016455;-74
2023/12/16 02:58:15;;;;;;;;;;;;;;;5.32;100.00;100599.15;67999;1275;1016465;-75
2023/12/16 03:01:17;;;;;;;;;;;;;;;5.21;100.00;100600.31;67990;1275;1016300;-74
2023/12/16 03:04:20;;;;;;;;;;;;;;;5.20;100.00;100614.20;67996;1275;1016100;-75
2023/12/16 03:07:23;;;;;;;;;;;;;;;5.29;100.00;100616.36;67982;1275;1016886;-74
2023/12/16 03:10:25;;;;;;;;;;;;;;;5.26;100.00;100616.58;67994;1275;1016397;-74
2023/12/16 03:13:28;;;;;;;;;;;;;;;5.33;100.00;100620.64;68058;1275;1016445;-74
2023/12/16 03:16:31;;;;;;;;;;;;;;;5.54;100.00;100630.83;68074;1275;1016546;-74
2023/12/16 03:19:34;;;;;;;;;;;;;;;5.47;100.00;100635.77;68048;1275;1018254;-74
2023/12/16 03:22:37;;;;;;;;;;;;;;;5.53;100.00;100644.54;68035;1275;1016838;-74
2023/12/16 03:25:39;;;;;;;;;;;;;;;5.46;100.00;100637.52;67996;1275;1016435;-74
2023/12/16 03:28:42;;;;;;;;;;;;;;;5.52;100.00;100637.45;67952;1275;1016487;-74
2023/12/16 03:31:45;;;;;;;;;;;;;;;5.56;100.00;100635.67;68067;1275;1015947;-74
2023/12/16 03:34:47;;;;;;;;;;;;;;;5.59;100.00;100637.20;67995;1275;1016473;-74
2023/12/16 03:37:50;;;;;;;;;;;;;;;5.64;100.00;100632.11;68027;1275;1016465;-74
2023/12/16 03:40:53;;;;;;;;;;;;;;;5.59;100.00;100630.25;68052;1275;1016887;-74
2023/12/16 03:43:55;;;;;;;;;;;;;;;5.48;100.00;100625.87;68017;1275;1016427;-74
2023/12/16 03:46:58;;;;;;;;;;;;;;;5.51;100.00;100626.17;68019;1275;1016420;-74
2023/12/16 03:50:00;;;;;;;;;;;;;;;5.50;100.00;100625.66;67975;1275;1016640;-74
2023/12/16 03:53:03;;;;;;;;;;;;;;;5.52;100.00;100623.05;68049;1275;1016294;-74
2023/12/16 03:56:05;;;;;;;;;;;;;;;5.66;100.00;100610.20;68024;1275;1016410;-74
2023/12/16 03:59:08;;;;;;;;;;;;;;;5.79;100.00;100601.36;68023;1275;1016335;-74
2023/12/16 04:02:11;;;;;;;;;;;;;;;5.77;100.00;100605.38;68023;1275;1016801;-74
2023/12/16 04:05:13;;;;;;;;;;;;;;;5.74;100.00;100612.89;67995;1275;1016333;-74
2023/12/16 04:08:16;;;;;;;;;;;;;;;5.74;100.00;100614.27;67975;1275;1016923;-74
2023/12/16 04:11:18;;;;;;;;;;;;;;;5.73;100.00;100615.50;68015;1275;1017111;-75
2023/12/16 04:14:21;;;;;;;;;;;;;;;5.91;100.00;100619.27;68009;1275;1016226;-75
2023/12/16 04:17:24;;;;;;;;;;;;;;;5.95;100.00;100620.96;67931;1275;1015718;-74
2023/12/16 04:20:28;;;;;;;;;;;;;;;5.92;100.00;100617.88;67987;1275;1016432;-75
2023/12/16 04:23:31;;;;;;;;;;;;;;;5.92;100.00;100621.17;67978;1275;1017940;-74
2023/12/16 04:26:34;;;;;;;;;;;;;;;6.06;100.00;100627.42;68035;1275;1016243;-75
2023/12/16 04:29:36;;;;;;;;;;;;;;;6.17;100.00;100633.39;67975;1275;1018628;-75
2023/12/16 04:32:39;;;;;;;;;;;;;;;6.08;100.00;100632.63;68019;1275;1017036;-74
2023/12/16 04:35:42;;;;;;;;;;;;;;;6.16;100.00;100628.86;68037;1275;1016270;-75
2023/12/16 04:38:44;;;;;;;;;;;;;;;6.24;100.00;100614.84;68004;1275;1016442;-74
2023/12/16 04:41:47;;;;;;;;;;;;;;;6.19;100.00;100618.56;68004;1275;1016317;-74
2023/12/16 04:44:49;;;;;;;;;;;;;;;6.23;100.00;100627.89;68014;1275;1016489;-74
2023/12/16 04:47:52;;;;;;;;;;;;;;;6.27;100.00;100624.02;68059;1275;1016436;-74
2023/12/16 04:50:54;;;;;;;;;;;;;;;6.34;100.00;100626.34;68010;1275;1016876;-74
2023/12/16 04:53:57;;;;;;;;;;;;;;;6.29;100.00;100624.33;68008;1275;1016010;-74
2023/12/16 04:57:00;;;;;;;;;;;;;;;6.22;100.00;100632.26;68061;1275;1016124;-74
2023/12/16 05:00:04;;;;;;;;;;;;;;;6.22;100.00;100633.48;68036;1275;1016313;-74
2023/12/16 05:03:07;;;;;;;;;;;;;;;6.32;100.00;100633.85;68007;1275;1020231;-74
2023/12/16 05:06:09;;;;;;;;;;;;;;;6.46;100.00;100635.38;68020;1275;1018896;-74
2023/12/16 05:09:13;;;;;;;;;;;;;;;6.52;100.00;100626.40;68003;1275;1016155;-74
2023/12/16 05:12:16;;;;;;;;;;;;;;;6.41;100.00;100627.97;67994;1275;1016172;-74
2023/12/16 05:15:19;;;;;;;;;;;;;;;6.51;100.00;100634.43;68005;1275;1016032;-73
2023/12/16 05:18:21;;;;;;;;;;;;;;;6.56;100.00;100638.35;68009;1275;1016498;-74
2023/12/16 05:21:24;;;;;;;;;;;;;;;6.57;100.00;100642.86;68022;1275;1016233;-74
2023/12/16 05:24:27;;;;;;;;;;;;;;;6.43;100.00;100652.11;68015;1275;1016324;-74
2023/12/16 05:27:38;;;;;;;;;;;;;;;6.59;100.00;100662.46;65302;1275;6424149;-74
2023/12/16 05:30:43;;;;;;;;;;;;;;;6.70;100.00;100668.39;67998;1275;1016745;-75
2023/12/16 05:33:45;;;;;;;;;;;;;;;6.68;100.00;100673.98;67978;1275;1016409;-75
2023/12/16 05:36:50;;;;;;;;;;;;;;;6.51;100.00;100677.01;68051;1275;1016460;-74
2023/12/16 05:39:55;;;;;;;;;;;;;;;6.63;100.00;100677.16;67992;1275;1016436;-75
2023/12/16 05:42:58;;;;;;;;;;;;;;;6.83;100.00;100685.58;68032;1275;1016378;-72
2023/12/16 05:46:00;;;;;;;;;;;;;;;7.01;100.00;100685.63;68047;1275;1016172;-76
2023/12/16 05:49:03;;;;;;;;;;;;;;;6.81;100.00;100694.64;68081;1275;1018881;-75
2023/12/16 05:52:05;;;;;;;;;;;;;;;6.70;100.00;100693.41;68024;1275;1016424;-74
2023/12/16 05:55:08;;;;;;;;;;;;;;;6.56;100.00;100698.48;67993;1275;1016208;-73
2023/12/16 05:58:11;;;;;;;;;;;;;;;6.91;100.00;100702.11;68021;1275;1016455;-74
2023/12/16 06:01:19;;;;;;;;;;;;;;;6.58;100.00;100699.16;68047;1275;1016112;-74
2023/12/16 06:04:22;;;;;;;;;;;;;;;6.76;100.00;100707.95;68005;1275;1016458;-74
2023/12/16 06:07:24;;;;;;;;;;;;;;;6.99;100.00;100712.44;68041;1275;1016460;-74
2023/12/16 06:10:27;;;;;;;;;;;;;;;6.93;100.00;100713.77;68060;1275;1018025;-74
2023/12/16 06:13:30;;;;;;;;;;;;;;;6.90;100.00;100718.48;68018;1275;1016918;-74
2023/12/16 06:16:32;;;;;;;;;;;;;;;6.97;100.00;100718.23;67997;1275;1016106;-74
2023/12/16 06:19:35;;;;;;;;;;;;;;;6.83;100.00;100713.21;68007;1275;1016628;-74
2023/12/16 06:22:37;;;;;;;;;;;;;;;7.12;100.00;100706.48;68020;1275;1016394;-74
2023/12/16 06:25:40;;;;;;;;;;;;;;;6.88;100.00;100704.45;68013;1275;1016442;-74
2023/12/16 06:28:43;;;;;;;;;;;;;;;6.94;100.00;100699.65;68023;1275;1016220;-74
2023/12/16 06:31:46;;;;;;;;;;;;;;;6.91;100.00;100699.36;67988;1275;1016442;-74
2023/12/16 06:34:48;;;;;;;;;;;;;;;6.97;100.00;100699.61;67974;1275;1016476;-74
2023/12/16 06:37:51;;;;;;;;;;;;;;;7.01;100.00;100697.98;68006;1275;1017853;-74
2023/12/16 06:40:53;;;;;;;;;;;;;;;6.98;100.00;100706.73;68038;1275;1016416;-74
2023/12/16 06:43:56;;;;;;;;;;;;;;;7.03;100.00;100706.98;68054;1275;1016682;-76
2023/12/16 06:46:59;;;;;;;;;;;;;;;7.07;100.00;100706.58;68021;1275;1016465;-74
2023/12/16 06:50:01;;;;;;;;;;;;;;;7.01;100.00;100721.98;68022;1275;1016352;-74
2023/12/16 06:53:04;;;;;;;;;;;;;;;7.13;100.00;100715.34;68066;1275;1018758;-74
2023/12/16 06:56:07;;;;;;;;;;;;;;;7.31;100.00;100718.00;68016;1275;1016631;-74
2023/12/16 06:59:09;;;;;;;;;;;;;;;7.33;100.00;100715.88;68010;1275;1016329;-74
2023/12/16 07:02:12;;;;;;;;;;;;;;;7.49;100.00;100715.05;68031;1275;1016394;-74
2023/12/16 07:05:15;;;;;;;;;;;;;;;7.34;100.00;100711.00;67944;1275;1016404;-74
2023/12/16 07:08:17;;;;;;;;;;;;;;;7.46;100.00;100709.93;68009;1275;1016252;-73
2023/12/16 07:11:21;;;;;;;;;;;;;;;7.36;100.00;100714.80;67999;1275;1016399;-74
2023/12/16 07:14:23;;;;;;;;;;;;;;;7.41;100.00;100722.19;68006;1275;1016387;-74
2023/12/16 07:17:26;;;;;;;;;;;;;;;7.42;100.00;100719.02;68050;1275;1016468;-74
2023/12/16 07:20:28;;;;;;;;;;;;;;;7.42;100.00;100728.08;68028;1275;1016361;-73
2023/12/16 07:23:33;;;;;;;;;;;;;;;7.50;100.00;100735.95;67970;1275;1016490;-74
2023/12/16 07:26:36;;;;;;;;;;;;;;;7.38;100.00;100733.02;68033;1275;1016419;-74
2023/12/16 07:29:39;;;;;;;;;;;;;;;7.50;100.00;100739.42;67977;1275;1016339;-74
2023/12/16 07:32:41;;;;;;;;;;;;;;;7.68;100.00;100737.00;67979;1275;1016325;-74
2023/12/16 07:35:44;;;;;;;;;;;;;;;7.79;100.00;100734.73;68061;1275;1017019;-75
2023/12/16 07:38:46;;;;;;;;;;;;;;;7.73;100.00;100731.01;68042;1275;1016469;-74
2023/12/16 07:41:49;;;;;;;;;;;;;;;7.78;100.00;100728.64;67981;1275;1016319;-75
2023/12/16 07:44:52;;;;;;;;;;;;;;;7.94;100.00;100728.86;67988;1275;1016410;-75
2023/12/16 07:47:54;;;;;;;;;;;;;;;7.93;100.00;100724.71;68006;1275;1016051;-74
2023/12/16 07:50:57;;;;;;;;;;;;;;;7.92;100.00;100725.59;67953;1275;1016367;-75
2023/12/16 07:53:59;;;;;;;;;;;;;;;7.90;100.00;100727.36;67965;1275;1020536;-74
2023/12/16 07:57:02;;;;;;;;;;;;;;;7.82;100.00;100725.95;67949;1275;1016309;-75
2023/12/16 08:00:04;;;;;;;;;;;;;;;7.86;100.00;100731.98;68025;1275;1016494;-72
2023/12/16 08:03:07;;;;;;;;;;;;;;;7.83;100.00;100738.48;67993;1275;1016469;-74
2023/12/16 08:06:11;;;;;;;;;;;;;;;8.62;100.00;100738.41;67950;1275;1016386;-74
2023/12/16 08:09:14;;;;;;;;;;;;;;;7.95;100.00;100743.82;67992;1275;1016220;-74
2023/12/16 08:12:16;;;;;;;;;;;;;;;7.83;100.00;100743.88;67993;1275;1016233;-74
2023/12/16 08:15:19;;;;;;;;;;;;;;;8.10;100.00;100742.66;68032;1275;1016463;-74
2023/12/16 08:18:22;;;;;;;;;;;;;;;7.88;100.00;100739.08;67995;1275;1016396;-73
2023/12/16 08:21:24;;;;;;;;;;;;;;;7.84;100.00;100735.68;68025;1275;1016437;-74
2023/12/16 08:24:29;;;;;;;;;;;;;;;7.87;100.00;100740.84;68016;1275;1016263;-74
2023/12/16 08:27:33;;;;;;;;;;;;;;;7.87;100.00;100745.71;68023;1275;1016454;-74
2023/12/16 08:30:35;;;;;;;;;;;;;;;7.90;100.00;100744.98;67975;1275;1016354;-75
2023/12/16 08:33:38;;;;;;;;;;;;;;;7.76;100.00;100739.82;68001;1275;1016188;-74
2023/12/16 08:36:41;;;;;;;;;;;;;;;7.82;100.00;100744.08;68012;1275;1016233;-74
2023/12/16 08:39:44;;;;;;;;;;;;;;;7.80;100.00;100763.63;68000;1275;1016409;-74
2023/12/16 08:42:46;;;;;;;;;;;;;;;7.79;100.00;100768.86;68033;1275;1015856;-74
2023/12/16 08:45:50;;;;;;;;;;;;;;;7.83;100.00;100775.75;67988;1275;1016309;-74
2023/12/16 08:48:54;;;;;;;;;;;;;;;7.85;100.00;100776.23;67910;1275;1016449;-74
2023/12/16 08:55:20;;;;;;;;;;;;;;;7.61;100.00;100771.79;68016;1275;1016713;-74
2023/12/16 08:58:22;;;;;;;;;;;;;;;7.70;100.00;100777.55;68006;1275;1016442;-74
2023/12/16 09:01:25;;;;;;;;;;;;;;;7.71;100.00;100772.32;68017;1275;1016361;-74
2023/12/16 09:04:27;;;;;;;;;;;;;;;7.73;100.00;100782.73;68026;1275;1016295;-75
2023/12/16 09:07:30;;;;;;;;;;;;;;;7.55;100.00;100793.83;67965;1275;1018283;-74
2023/12/16 09:10:37;;;;;;;;;;;;;;;7.62;100.00;100796.14;67984;1275;1016277;-74
2023/12/16 09:13:40;;;;;;;;;;;;;;;7.78;100.00;100802.14;68007;1275;1016895;-74
2023/12/16 09:16:43;;;;;;;;;;;;;;;7.75;100.00;100802.72;68074;1275;1016276;-75
2023/12/16 09:19:45;;;;;;;;;;;;;;;7.60;100.00;100805.77;68064;1275;1016307;-74
2023/12/16 09:22:48;;;;;;;;;;;;;;;7.55;100.00;100801.66;67994;1275;1016460;-74
2023/12/16 09:25:52;;;;;;;;;;;;;;;7.57;100.00;100793.45;68015;1275;1016381;-74
2023/12/16 09:28:56;;;;;;;;;;;;;;;7.78;100.00;100786.98;68083;1275;1016521;-74
2023/12/16 09:31:58;;;;;;;;;;;;;;;7.56;100.00;100779.20;67999;1275;1016499;-74
2023/12/16 09:35:02;;;;;;;;;;;;;;;7.57;100.00;100779.17;68031;1275;1016726;-75
2023/12/16 09:38:05;;;;;;;;;;;;;;;7.67;100.00;100773.78;67985;1275;1016149;-74
2023/12/16 09:41:08;;;;;;;;;;;;;;;7.70;100.00;100774.76;68010;1275;1016365;-74
2023/12/16 09:44:10;;;;;;;;;;;;;;;7.73;100.00;100778.37;68046;1275;1016506;-74
2023/12/16 09:47:13;;;;;;;;;;;;;;;7.75;100.00;100772.77;67990;1275;1016163;-74
2023/12/16 09:50:15;;;;;;;;;;;;;;;7.84;100.00;100774.52;68015;1275;1016465;-75
2023/12/16 09:53:18;;;;;;;;;;;;;;;7.75;100.00;100779.90;68033;1275;1016200;-74
2023/12/16 09:56:21;;;;;;;;;;;;;;;8.00;100.00;100784.85;67969;1275;1016054;-74
2023/12/16 09:59:23;;;;;;;;;;;;;;;8.97;100.00;100784.23;68002;1275;1016225;-74
2023/12/16 10:02:26;;;;;;;;;;;;;;;9.31;100.00;100775.39;68057;1275;1018162;-74
2023/12/16 10:05:28;;;;;;;;;;;;;;;8.31;100.00;100775.66;68012;1275;1016347;-74
2023/12/16 10:08:31;;;;;;;;;;;;;;;7.77;100.00;100773.59;67991;1275;1016459;-74
2023/12/16 10:11:34;;;;;;;;;;;;;;;7.86;100.00;100779.52;68000;1275;1017220;-73
2023/12/16 10:14:36;;;;;;;;;;;;;;;7.81;100.00;100770.40;67991;1275;1016183;-74
2023/12/16 10:17:39;;;;;;;;;;;;;;;7.83;100.00;100770.02;68031;1275;1016351;-73
2023/12/16 10:20:41;;;;;;;;;;;;;;;7.91;100.00;100774.38;67974;1275;1016215;-74
2023/12/16 10:23:44;;;;;;;;;;;;;;;7.89;100.00;100784.36;68054;1275;1016347;-73
2023/12/16 10:26:47;;;;;;;;;;;;;;;7.96;100.00;100784.91;68014;1275;1016405;-74
2023/12/16 10:29:52;;;;;;;;;;;;;;;8.04;100.00;100784.76;68002;1275;1016414;-74
2023/12/16 10:32:54;;;;;;;;;;;;;;;8.13;100.00;100782.51;68052;1275;1016041;-74
2023/12/16 10:35:57;;;;;;;;;;;;;;;8.01;100.00;100783.42;68019;1275;1016380;-73
2023/12/16 10:38:59;;;;;;;;;;;;;;;8.02;100.00;100775.39;68016;1275;1016412;-73
2023/12/16 10:42:02;;;;;;;;;;;;;;;8.04;100.00;100764.73;68041;1275;1018942;-74
2023/12/16 10:45:05;;;;;;;;;;;;;;;8.12;100.00;100765.79;68006;1275;1016667;-74
2023/12/16 10:48:08;;;;;;;;;;;;;;;8.16;100.00;100758.73;67969;1275;1016291;-73
2023/12/16 10:51:10;;;;;;;;;;;;;;;8.30;100.00;100761.25;68056;1275;1017242;-73
2023/12/16 10:54:15;;;;;;;;;;;;;;;8.11;100.00;100757.27;68005;1275;1018928;-74
2023/12/16 10:57:19;;;;;;;;;;;;;;;8.25;100.00;100751.24;68030;1275;1016438;-74
2023/12/16 11:00:22;;;;;;;;;;;;;;;8.23;100.00;100750.41;68018;1275;1018468;-73
2023/12/16 11:03:25;;;;;;;;;;;;;;;8.42;100.00;100749.66;68041;1275;1016415;-74
2023/12/16 11:06:28;;;;;;;;;;;;;;;8.27;100.00;100753.11;68024;1275;1016294;-73
2023/12/16 11:09:31;;;;;;;;;;;;;;;8.36;100.00;100749.27;68054;1275;1016543;-74
2023/12/16 11:12:33;;;;;;;;;;;;;;;8.00;100.00;100741.98;68046;1275;1016398;-74
2023/12/16 11:15:36;;;;;;;;;;;;;;;8.05;100.00;100744.52;68013;1275;1016009;-75
2023/12/16 11:18:39;;;;;;;;;;;;;;;8.24;100.00;100733.64;68064;1275;1016428;-74
2023/12/16 11:21:42;;;;;;;;;;;;;;;8.36;100.00;100726.09;67990;1275;1016474;-74
2023/12/16 11:24:45;;;;;;;;;;;;;;;8.55;100.00;100724.48;68029;1275;1016185;-74
2023/12/16 11:27:47;;;;;;;;;;;;;;;8.83;100.00;100718.26;68038;1275;1016709;-75
2023/12/16 11:30:50;;;;;;;;;;;;;;;8.82;100.00;100710.61;68015;1275;1016472;-74
2023/12/16 11:33:53;;;;;;;;;;;;;;;8.94;100.00;100713.65;68023;1275;1019361;-74
2023/12/16 11:37:02;;;;;;;;;;;;;;;8.61;100.00;100719.42;67998;1275;1016374;-73
2023/12/16 11:40:07;;;;;;;;;;;;;;;8.68;100.00;100722.09;68041;1275;1018267;-74
2023/12/16 11:43:11;;;;;;;;;;;;;;;8.95;100.00;100715.71;68001;1275;1016221;-74
2023/12/16 11:46:13;;;;;;;;;;;;;;;9.00;100.00;100719.94;68038;1275;1016275;-74
2023/12/16 11:49:16;;;;;;;;;;;;;;;8.20;100.00;100724.68;67972;1275;1016371;-74
2023/12/16 11:55:42;;;;;;;;;;;;;;;8.25;100.00;100719.01;67978;1275;1016399;-74
2023/12/16 11:58:45;;;;;;;;;;;;;;;8.30;100.00;100715.23;68019;1275;1016408;-75
2023/12/16 12:01:47;;;;;;;;;;;;;;;8.41;100.00;100714.48;68031;1275;1016377;-74
2023/12/16 12:04:50;;;;;;;;;;;;;;;8.54;100.00;100711.08;67967;1275;1017200;-74
2023/12/16 12:07:53;;;;;;;;;;;;;;;8.61;100.00;100708.66;68043;1275;1016579;-74
2023/12/16 12:10:55;;;;;;;;;;;;;;;8.66;100.00;100696.51;67992;1275;1016654;-74
2023/12/16 12:13:58;;;;;;;;;;;;;;;8.68;100.00;100685.64;67940;1275;1016717;-74
2023/12/16 12:17:03;;;;;;;;;;;;;;;8.80;100.00;100678.55;68028;1275;1016279;-74
2023/12/16 12:20:06;;;;;;;;;;;;;;;8.79;100.00;100682.41;68026;1275;1016127;-74
2023/12/16 12:23:09;;;;;;;;;;;;;;;8.70;100.00;100687.87;68009;1275;1016462;-74
2023/12/16 12:26:12;;;;;;;;;;;;;;;8.73;100.00;100691.29;68016;1275;1016469;-74
2023/12/16 12:29:14;;;;;;;;;;;;;;;8.76;100.00;100683.54;68070;1275;1015924;-74
2023/12/16 12:32:17;;;;;;;;;;;;;;;8.85;100.00;100678.09;67986;1275;1016528;-74
2023/12/16 12:35:19;;;;;;;;;;;;;;;8.85;100.00;100679.65;68031;1275;1017485;-73
2023/12/16 12:38:22;;;;;;;;;;;;;;;8.90;100.00;100677.27;68045;1275;1017158;-73
2023/12/16 12:41:24;;;;;;;;;;;;;;;8.82;100.00;100680.10;68025;1275;1016357;-74
2023/12/16 12:44:27;;;;;;;;;;;;;;;8.75;100.00;100676.23;67993;1275;1016168;-74
2023/12/16 12:47:30;;;;;;;;;;;;;;;8.79;100.00;100669.52;67995;1275;1016239;-74
2023/12/16 12:50:32;;;;;;;;;;;;;;;8.81;100.00;100663.17;67985;1275;1016506;-74
2023/12/16 12:53:35;;;;;;;;;;;;;;;8.88;100.00;100661.27;68064;1275;1016473;-73
2023/12/16 12:56:39;;;;;;;;;;;;;;;8.86;100.00;100660.27;68005;1275;1016297;-74
2023/12/16 12:59:41;;;;;;;;;;;;;;;8.85;100.00;100667.61;68015;1275;1016428;-74
2023/12/16 13:02:44;;;;;;;;;;;;;;;8.94;100.00;100664.27;68003;1275;1016481;-73
2023/12/16 13:05:46;;;;;;;;;;;;;;;8.83;100.00;100662.97;68047;1275;1016338;-74
2023/12/16 13:08:49;;;;;;;;;;;;;;;8.93;100.00;100665.69;68044;1275;1016197;-74
2023/12/16 13:11:52;;;;;;;;;;;;;;;8.97;100.00;100670.83;68022;1275;1016693;-74
2023/12/16 13:14:54;;;;;;;;;;;;;;;8.98;100.00;100670.27;68028;1275;1019692;-74
2023/12/16 13:17:57;;;;;;;;;;;;;;;9.02;100.00;100667.55;68069;1275;1015811;-71
2023/12/16 13:21:03;;;;;;;;;;;;;;;9.07;100.00;100663.07;67999;1275;1018390;-74
2023/12/16 13:24:06;;;;;;;;;;;;;;;9.08;100.00;100652.40;68002;1275;1016414;-73
2023/12/16 13:27:08;;;;;;;;;;;;;;;9.02;100.00;100654.28;67990;1275;1016189;-74
2023/12/16 13:30:11;;;;;;;;;;;;;;;8.90;100.00;100653.89;68036;1275;1018801;-74
2023/12/16 13:33:14;;;;;;;;;;;;;;;8.87;100.00;100656.41;68079;1275;1016228;-74
2023/12/16 13:36:16;;;;;;;;;;;;;;;8.89;100.00;100654.63;67989;1275;1016304;-74
2023/12/16 13:39:20;;;;;;;;;;;;;;;8.95;100.00;100651.51;67979;1275;1016432;-74
2023/12/16 13:42:23;;;;;;;;;;;;;;;8.96;100.00;100648.86;68003;1275;1016368;-74
2023/12/16 13:45:25;;;;;;;;;;;;;;;8.99;100.00;100643.38;68043;1275;1016799;-75
2023/12/16 13:48:28;;;;;;;;;;;;;;;8.92;100.00;100641.98;67993;1275;1015982;-74
2023/12/16 13:51:31;;;;;;;;;;;;;;;8.88;100.00;100646.98;67995;1275;1016682;-74
2023/12/16 13:54:33;;;;;;;;;;;;;;;8.89;100.00;100643.44;68016;1275;1016266;-74
2023/12/16 13:57:36;;;;;;;;;;;;;;;8.89;100.00;100646.08;68030;1275;1016478;-74
2023/12/16 14:00:39;;;;;;;;;;;;;;;8.80;100.00;100648.04;68004;1275;1017236;-74
2023/12/16 14:03:41;;;;;;;;;;;;;;;8.91;100.00;100642.36;68059;1275;1016027;-74
2023/12/16 14:06:44;;;;;;;;;;;;;;;8.95;100.00;100636.84;68023;1275;1016471;-74
2023/12/16 14:09:46;;;;;;;;;;;;;;;8.89;100.00;100628.63;68030;1275;1016273;-74
2023/12/16 14:12:49;;;;;;;;;;;;;;;8.77;100.00;100630.13;68033;1275;1016020;-73
2023/12/16 14:15:52;;;;;;;;;;;;;;;8.60;100.00;100628.44;68059;1275;1019502;-73
2023/12/16 14:18:54;;;;;;;;;;;;;;;8.52;100.00;100628.29;67992;1274;1016498;-73
2023/12/16 14:21:57;;;;;;;;;;;;;;;8.46;100.00;100632.79;68001;1275;1016624;-73
2023/12/16 14:24:59;;;;;;;;;;;;;;;8.41;100.00;100636.20;68045;1275;1016292;-74
2023/12/16 14:28:02;;;;;;;;;;;;;;;8.42;100.00;100633.05;68025;1275;1016581;-74
2023/12/16 14:31:26;;;;;;;;;;;;;;;8.36;100.00;100631.27;68014;1275;1016409;-74
2023/12/16 14:34:28;;;;;;;;;;;;;;;8.32;100.00;100634.64;68019;1274;1016479;-74
2023/12/16 14:37:31;;;;;;;;;;;;;;;8.41;100.00;100634.80;67987;1275;1016268;-74
2023/12/16 14:40:34;;;;;;;;;;;;;;;8.45;100.00;100634.20;68034;1275;1016366;-73
2023/12/16 14:43:37;;;;;;;;;;;;;;;8.46;100.00;100636.27;68019;1275;1016201;-74
2023/12/16 14:46:41;;;;;;;;;;;;;;;8.46;100.00;100632.95;68028;1275;1016429;-73
2023/12/16 14:49:44;;;;;;;;;;;;;;;8.42;100.00;100632.86;68026;1275;1016480;-74
2023/12/16 14:52:47;;;;;;;;;;;;;;;8.37;100.00;100633.34;67993;1275;1016435;-74
2023/12/16 14:55:50;;;;;;;;;;;;;;;8.36;100.00;100631.09;68047;1275;1016425;-74
2023/12/16 14:58:52;;;;;;;;;;;;;;;8.35;100.00;100634.06;68054;1275;1015984;-74
2023/12/16 15:01:55;;;;;;;;;;;;;;;8.28;100.00;100639.81;68002;1275;1016708;-74
2023/12/16 15:05:00;;;;;;;;;;;;;;;8.32;100.00;100639.02;68019;1275;1016327;-74
2023/12/16 15:08:05;;;;;;;;;;;;;;;8.25;100.00;100630.81;68041;1275;1016436;-74
2023/12/16 15:11:07;;;;;;;;;;;;;;;8.22;100.00;100625.83;67975;1275;1015763;-75
2023/12/16 15:14:14;;;;;;;;;;;;;;;8.19;100.00;100621.89;67973;1275;1016299;-73
2023/12/16 15:17:19;;;;;;;;;;;;;;;8.32;100.00;100616.70;68022;1275;1016841;-74
2023/12/16 15:20:22;;;;;;;;;;;;;;;8.26;100.00;100613.69;68058;1275;1016376;-75
2023/12/16 15:23:24;;;;;;;;;;;;;;;8.34;100.00;100610.73;68013;1275;1016519;-74